This is the latest recevied weather packets stored in our database for station/object 9W2CEW-1. If no packets are shown the sender has not sent any weather packets the latest 10 day(s).
| Time | Temp. | Humidity | Pressure | Rain* | Wind** | Luminosity | Snow |
|---|---|---|---|---|---|---|---|
| 1787782108 | 32.78° C | 56% | 1005.8 hPa | - | - | - | - |
| 1787781208 | 33.89° C | 50% | 1005.8 hPa | - | - | - | - |
| 1787780926 | 35° C | 48% | 1007.4 hPa | - | - | - | - |
| 1787780309 | 35° C | 49% | 1005.8 hPa | - | - | - | - |
| 1787779408 | 36.11° C | 46% | 1005.8 hPa | - | - | - | - |
| 1787778564 | 35.56° C | 46% | 1005.8 hPa | - | - | - | - |
| 1787778508 | 35.56° C | 46% | 1005.8 hPa | - | - | - | - |
| 1787777608 | 37.22° C | 43% | 1005.9 hPa | - | - | - | - |
| 1787776707 | 36.67° C | 45% | 1005.9 hPa | - | - | - | - |
| 1787775808 | 36.67° C | 44% | 1005.9 hPa | - | - | - | - |
| 1787774909 | 37.22° C | 43% | 1005.8 hPa | - | - | - | - |
| 1787774009 | 37.78° C | 42% | 1006 hPa | - | - | - | - |
| 1787773640 | 35° C | 48% | 1004.9 hPa | - | - | - | - |
| 1787773109 | 36.67° C | 44% | 1006.1 hPa | - | - | - | - |
| 1787772209 | 36.67° C | 42% | 1006.2 hPa | - | - | - | - |
| 1787771309 | 37.78° C | 40% | 1006.3 hPa | - | - | - | - |
| 1787771157 | 35° C | 46% | 1004.9 hPa | - | - | - | - |
| 1787770409 | 37.78° C | 41% | 1006.4 hPa | - | - | - | - |
| 1787769509 | 38.89° C | 39% | 1006.4 hPa | - | - | - | - |
| 1787768690 | 35° C | 46% | 1004.5 hPa | - | - | - | - |
| 1787768608 | 36.11° C | 44% | 1006.4 hPa | - | - | - | - |
| 1787767708 | 34.44° C | 48% | 1006.6 hPa | - | - | - | - |
| 1787767403 | 35° C | 45% | 1004.7 hPa | - | - | - | - |
| 1787766808 | 35° C | 48% | 1006.8 hPa | - | - | - | - |
| 1787765908 | 34.44° C | 49% | 1006.9 hPa | - | - | - | - |
* Rain since midnight (hover to see other rain measurements)
** Current wind speed in m/s (hover to see current wind gust speed)